Time;durP1;ratioP1;P1;durP2;ratioP2;P2;SDS_P1;SDS_P2;PMS_P1;PMS_P2;Temp;Humidity;BMP_temperature;BMP_pressure;BME280_temperature;BME280_humidity;BME280_pressure;Samples;Min_cycle;Max_cycle;Signal;HPM_P1;HPM_P2
2022/06/10 00:00:19;;;;;;;2.75;1.38;;;13.00;99.90;;;;;;4197336;28;20972;-75
2022/06/10 00:02:21;;;;;;;2.33;1.40;;;12.90;99.90;;;;;;4196090;28;20056;-76
2022/06/10 00:04:23;;;;;;;6.53;1.33;;;12.90;99.90;;;;;;4197069;28;20061;-75
2022/06/10 00:06:24;;;;;;;4.32;1.55;;;12.90;99.90;;;;;;4197130;28;20092;-75
2022/06/10 00:08:29;;;;;;;3.95;1.23;;;12.90;99.90;;;;;;4195770;28;20147;-76
2022/06/10 00:10:31;;;;;;;2.13;1.15;;;12.80;99.90;;;;;;4197534;28;20045;-76
2022/06/10 00:12:33;;;;;;;2.85;1.20;;;12.80;99.90;;;;;;4197302;28;20063;-76
2022/06/10 00:14:35;;;;;;;5.15;1.30;;;12.70;99.90;;;;;;4198295;28;20892;-75
2022/06/10 00:16:37;;;;;;;4.40;1.70;;;12.70;99.90;;;;;;4194566;28;20163;-75
2022/06/10 00:18:40;;;;;;;4.00;1.70;;;12.70;99.90;;;;;;4196928;28;20789;-76
2022/06/10 00:20:42;;;;;;;2.58;1.20;;;12.70;99.90;;;;;;4197422;28;20095;-76
2022/06/10 00:22:44;;;;;;;2.72;1.30;;;12.70;99.90;;;;;;4195543;28;20096;-76
2022/06/10 00:24:46;;;;;;;6.65;1.65;;;12.70;99.90;;;;;;4197009;28;20088;-76
2022/06/10 00:26:48;;;;;;;3.17;1.83;;;12.70;99.90;;;;;;4196794;28;20057;-76
2022/06/10 00:28:49;;;;;;;2.15;0.90;;;12.80;99.90;;;;;;4197103;28;20063;-75
2022/06/10 00:30:51;;;;;;;3.50;1.30;;;12.70;99.90;;;;;;4196711;28;20067;-75
2022/06/10 00:32:53;;;;;;;3.28;1.08;;;12.70;99.90;;;;;;4200304;28;20061;-74
2022/06/10 00:34:55;;;;;;;4.00;1.40;;;12.70;99.90;;;;;;4195635;28;20064;-75
2022/06/10 00:36:57;;;;;;;1.40;1.23;;;12.60;99.90;;;;;;4196546;28;20773;-76
2022/06/10 00:38:59;;;;;;;3.88;1.20;;;12.60;99.90;;;;;;4195843;28;20063;-75
2022/06/10 00:41:01;;;;;;;3.25;1.10;;;12.60;99.90;;;;;;4196549;28;20102;-75
2022/06/10 00:43:03;;;;;;;6.95;1.35;;;12.60;99.90;;;;;;4196672;28;20208;-76
2022/06/10 00:45:26;;;;;;;2.45;1.10;;;12.60;99.90;;;;;;4194061;28;20061;-75
2022/06/10 00:47:41;;;;;;;2.63;1.30;;;12.60;99.90;;;;;;4196185;28;20057;-75
2022/06/10 00:49:47;;;;;;;2.20;1.10;;;12.60;99.90;;;;;;4194326;28;20824;-76
2022/06/10 00:51:52;;;;;;;6.20;1.65;;;12.60;99.90;;;;;;4194196;28;20847;-76
2022/06/10 00:54:13;;;;;;;2.50;1.60;;;12.60;99.90;;;;;;4193711;28;20845;-75
2022/06/10 00:56:19;;;;;;;4.55;1.40;;;12.50;99.90;;;;;;4194304;28;20865;-75
2022/06/10 00:58:21;;;;;;;2.92;1.40;;;12.40;99.90;;;;;;4196480;28;20057;-75
2022/06/10 01:00:23;;;;;;;3.03;1.27;;;12.40;99.90;;;;;;4196644;28;20057;-76
2022/06/10 01:02:30;;;;;;;3.80;1.77;;;12.40;99.90;;;;;;4195482;28;20954;-76
2022/06/10 01:04:34;;;;;;;1.55;1.20;;;12.30;99.90;;;;;;4197044;28;20079;-76
2022/06/10 01:06:36;;;;;;;7.30;2.13;;;12.30;99.90;;;;;;4195550;28;20655;-76
2022/06/10 01:08:41;;;;;;;6.28;1.17;;;12.20;99.90;;;;;;4196677;28;20061;-76
2022/06/10 01:11:06;;;;;;;2.70;1.33;;;12.20;99.90;;;;;;4196402;28;20060;-75
2022/06/10 01:13:27;;;;;;;2.33;1.58;;;12.20;99.90;;;;;;4196734;28;20068;-75
2022/06/10 01:15:46;;;;;;;2.63;1.40;;;12.20;99.90;;;;;;4195736;28;20122;-75
2022/06/10 01:17:50;;;;;;;2.38;1.30;;;12.20;99.90;;;;;;4196492;28;20049;-76
2022/06/10 01:20:01;;;;;;;2.95;1.40;;;12.10;99.90;;;;;;4196519;28;20155;-75
2022/06/10 01:22:40;;;;;;;5.90;1.52;;;12.10;99.90;;;;;;4194790;28;20159;-75
2022/06/10 01:24:51;;;;;;;2.88;1.10;;;12.00;99.90;;;;;;4196215;28;20187;-75
2022/06/10 01:29:52;;;;;;;4.35;1.20;;;11.90;99.90;;;;;;4196115;28;20694;-75
2022/06/10 01:32:00;;;;;;;5.35;1.98;;;11.90;99.90;;;;;;4195153;28;20068;-75
2022/06/10 01:34:28;;;;;;;5.57;1.60;;;11.90;99.90;;;;;;4194148;28;20725;-75
2022/06/10 01:36:35;;;;;;;4.75;1.55;;;11.90;99.90;;;;;;4194762;28;20647;-76
2022/06/10 01:38:56;;;;;;;2.78;1.67;;;11.80;99.90;;;;;;4196700;28;20057;-75
2022/06/10 01:41:25;;;;;;;2.00;1.70;;;11.90;99.90;;;;;;4193782;28;20098;-76
2022/06/10 01:43:38;;;;;;;5.10;1.35;;;11.80;99.90;;;;;;4194736;28;20937;-76
2022/06/10 01:45:54;;;;;;;2.53;1.60;;;11.80;99.90;;;;;;4194179;28;20045;-75
2022/06/10 01:48:04;;;;;;;2.53;1.38;;;11.80;99.90;;;;;;4198396;28;20119;-76
2022/06/10 01:50:42;;;;;;;3.35;1.55;;;11.80;99.90;;;;;;4196571;28;20755;-75
2022/06/10 01:52:52;;;;;;;3.60;1.70;;;11.80;99.90;;;;;;4185135;28;20682;-75
2022/06/10 01:55:13;;;;;;;4.00;1.80;;;11.70;99.90;;;;;;4196537;28;20061;-76
2022/06/10 01:57:48;;;;;;;4.85;2.20;;;11.70;99.90;;;;;;4196458;28;20167;-75
2022/06/10 02:00:06;;;;;;;4.20;1.33;;;11.70;99.90;;;;;;4176280;28;20059;-75
2022/06/10 02:02:13;;;;;;;6.10;1.73;;;11.70;99.90;;;;;;4194497;28;20179;-75
2022/06/10 02:04:23;;;;;;;2.13;1.60;;;11.70;99.90;;;;;;4192909;28;20925;-74
2022/06/10 02:06:53;;;;;;;3.58;1.33;;;11.60;99.90;;;;;;4195635;28;20061;-74
2022/06/10 02:09:09;;;;;;;3.95;1.90;;;11.70;99.90;;;;;;4175106;28;20185;-75
2022/06/10 02:11:17;;;;;;;5.55;2.00;;;11.70;99.90;;;;;;4193078;28;20092;-75
2022/06/10 02:13:27;;;;;;;6.38;2.05;;;11.60;99.90;;;;;;4196018;28;20099;-75
2022/06/10 02:15:34;;;;;;;4.07;1.70;;;11.60;99.90;;;;;;4194496;28;20063;-74
2022/06/10 02:17:41;;;;;;;4.30;2.15;;;11.50;99.90;;;;;;4194110;28;20068;-76
2022/06/10 02:19:49;;;;;;;3.03;1.85;;;11.50;99.90;;;;;;4197524;28;20060;-75
2022/06/10 02:22:20;;;;;;;1.70;1.23;;;11.50;99.90;;;;;;4198366;28;20056;-75
2022/06/10 02:24:39;;;;;;;3.40;2.03;;;11.50;99.90;;;;;;4198276;28;20111;-75
2022/06/10 02:26:42;;;;;;;3.25;1.92;;;11.50;99.90;;;;;;4197999;28;20057;-75
2022/06/10 02:28:52;;;;;;;6.35;1.90;;;11.50;99.90;;;;;;4197876;28;20163;-75
2022/06/10 02:31:09;;;;;;;2.78;1.95;;;11.50;99.90;;;;;;4197444;28;20849;-75
2022/06/10 02:33:12;;;;;;;3.50;1.50;;;11.50;99.90;;;;;;4196920;28;20060;-73
2022/06/10 02:35:16;;;;;;;2.20;1.50;;;11.50;99.90;;;;;;4197267;28;20071;-75
2022/06/10 02:37:25;;;;;;;2.60;1.38;;;11.50;99.90;;;;;;4197683;28;20889;-75
2022/06/10 02:39:45;;;;;;;3.85;1.80;;;11.40;99.90;;;;;;4198198;28;20041;-75
2022/06/10 02:42:10;;;;;;;4.15;1.92;;;11.40;99.90;;;;;;4190683;28;20065;-75
2022/06/10 02:44:56;;;;;;;3.70;1.90;;;11.40;99.90;;;;;;4198095;28;20059;-75
2022/06/10 02:47:11;;;;;;;6.35;2.40;;;11.30;99.90;;;;;;4173411;28;20654;-75
2022/06/10 02:49:19;;;;;;;3.47;2.42;;;11.30;99.90;;;;;;4194981;28;20783;-75
2022/06/10 02:51:21;;;;;;;6.15;2.15;;;11.30;99.90;;;;;;4195614;28;20064;-75
2022/06/10 02:53:23;;;;;;;5.50;1.75;;;11.20;99.90;;;;;;4199084;28;20063;-75
2022/06/10 02:55:26;;;;;;;7.45;2.30;;;11.20;99.90;;;;;;4197857;28;20886;-75
2022/06/10 03:02:33;;;;;;;4.38;1.90;;;11.20;99.90;;;;;;4199461;28;20823;-75
2022/06/10 03:05:04;;;;;;;3.88;2.38;;;11.20;99.90;;;;;;4197496;28;20068;-75
2022/06/10 03:07:33;;;;;;;8.15;2.40;;;11.10;99.90;;;;;;4193583;28;20057;-75
2022/06/10 03:09:41;;;;;;;3.45;2.03;;;11.20;99.90;;;;;;4198497;28;20061;-76
2022/06/10 03:11:55;;;;;;;2.22;1.65;;;11.10;99.90;;;;;;4198013;28;20603;-75
2022/06/10 03:14:27;;;;;;;8.82;2.15;;;11.10;99.90;;;;;;4198342;28;20068;-75
2022/06/10 03:16:49;;;;;;;5.72;2.38;;;11.00;99.90;;;;;;4195477;28;20061;-75
2022/06/10 03:19:13;;;;;;;6.13;1.77;;;11.00;99.90;;;;;;4193484;28;20061;-75
2022/06/10 03:21:18;;;;;;;4.35;2.22;;;11.00;99.90;;;;;;4196755;28;20055;-75
2022/06/10 03:23:30;;;;;;;4.47;2.13;;;10.90;99.90;;;;;;4197040;28;20057;-74
2022/06/10 03:26:02;;;;;;;3.58;2.35;;;11.00;99.90;;;;;;4198201;28;20089;-74
2022/06/10 03:28:23;;;;;;;4.65;2.47;;;11.00;99.90;;;;;;4196590;28;20063;-74
2022/06/10 03:30:27;;;;;;;;;;;11.00;99.90;;;;;;4196034;28;20057;-75
2022/06/10 03:32:46;;;;;;;5.22;1.70;;;11.00;99.90;;;;;;4197651;28;19928;-75
2022/06/10 03:34:53;;;;;;;2.90;2.15;;;11.00;99.90;;;;;;4197697;28;20059;-75
2022/06/10 03:37:00;;;;;;;4.18;2.05;;;11.00;99.90;;;;;;4196191;28;21111;-75
2022/06/10 03:39:05;;;;;;;3.95;1.98;;;11.10;99.90;;;;;;4195128;28;20062;-75
2022/06/10 03:41:17;;;;;;;3.78;1.75;;;11.10;99.90;;;;;;4196244;28;20092;-75
2022/06/10 03:43:20;;;;;;;3.00;1.98;;;11.10;99.90;;;;;;4197716;28;20049;-75
2022/06/10 03:45:29;;;;;;;4.85;1.80;;;11.10;99.90;;;;;;4196300;28;20155;-75
2022/06/10 03:47:33;;;;;;;4.78;1.80;;;11.10;99.90;;;;;;4197941;28;20765;-75
2022/06/10 03:49:44;;;;;;;8.13;2.33;;;11.20;99.90;;;;;;4198107;28;20057;-75
2022/06/10 03:51:47;;;;;;;3.60;1.65;;;11.20;99.90;;;;;;4195128;28;20060;-74
2022/06/10 03:53:49;;;;;;;4.53;2.00;;;11.20;99.90;;;;;;4195500;28;20903;-75
2022/06/10 03:55:51;;;;;;;3.95;1.58;;;11.30;99.90;;;;;;4197902;28;20792;-75
2022/06/10 03:57:53;;;;;;;4.22;2.28;;;11.30;99.90;;;;;;4197963;28;20052;-74
2022/06/10 03:59:55;;;;;;;3.30;1.98;;;11.30;99.90;;;;;;4197818;28;20909;-75
2022/06/10 04:01:56;;;;;;;2.45;1.80;;;11.30;99.90;;;;;;4196695;28;20791;-74
2022/06/10 04:03:59;;;;;;;3.85;2.70;;;11.30;99.90;;;;;;4198034;28;20079;-74
2022/06/10 04:06:01;;;;;;;4.47;2.42;;;11.40;99.90;;;;;;4197609;28;20100;-74
2022/06/10 04:08:23;;;;;;;4.60;1.88;;;11.40;99.90;;;;;;4196379;28;20138;-75
2022/06/10 04:10:27;;;;;;;4.20;1.95;;;11.40;99.90;;;;;;4197478;28;20088;-74
2022/06/10 04:12:29;;;;;;;3.50;1.60;;;11.50;99.90;;;;;;4197318;28;20157;-74
2022/06/10 04:14:31;;;;;;;4.55;2.22;;;11.50;99.90;;;;;;4197658;28;20662;-74
2022/06/10 04:16:33;;;;;;;3.70;1.77;;;11.50;99.90;;;;;;4196652;28;20057;-75
2022/06/10 04:18:35;;;;;;;3.40;2.05;;;11.50;99.90;;;;;;4200176;28;20103;-74
2022/06/10 04:20:38;;;;;;;1.98;1.75;;;11.50;99.90;;;;;;4197509;28;20092;-74
2022/06/10 04:22:40;;;;;;;3.33;2.20;;;11.60;99.90;;;;;;4197199;28;20061;-75
2022/06/10 04:24:41;;;;;;;2.47;1.48;;;11.60;99.90;;;;;;4197097;28;20833;-74
2022/06/10 04:26:43;;;;;;;5.63;1.90;;;11.70;99.90;;;;;;4197161;28;20064;-75
2022/06/10 04:28:45;;;;;;;4.00;1.95;;;11.70;99.90;;;;;;4197084;28;20315;-74
2022/06/10 04:30:49;;;;;;;4.32;2.20;;;11.80;99.90;;;;;;4196988;28;20053;-73
2022/06/10 04:32:51;;;;;;;4.85;2.25;;;11.80;99.90;;;;;;4194697;28;20148;-74
2022/06/10 04:34:53;;;;;;;7.18;1.95;;;11.90;99.90;;;;;;4197504;28;20160;-74
2022/06/10 04:36:55;;;;;;;3.88;2.13;;;11.90;99.90;;;;;;4197225;28;20060;-75
2022/06/10 04:38:56;;;;;;;6.05;2.35;;;12.00;99.90;;;;;;4197121;28;20151;-75
2022/06/10 04:40:58;;;;;;;3.50;1.50;;;12.10;99.90;;;;;;4197225;28;20056;-74
2022/06/10 04:43:00;;;;;;;4.13;2.45;;;12.10;99.90;;;;;;4196375;28;20175;-75
2022/06/10 04:45:02;;;;;;;2.83;1.67;;;12.20;99.90;;;;;;4196407;28;20067;-75
2022/06/10 04:47:06;;;;;;;2.20;1.60;;;12.30;99.90;;;;;;4194204;28;20057;-75
2022/06/10 04:49:08;;;;;;;2.00;1.60;;;12.30;99.90;;;;;;4197130;28;20092;-75
2022/06/10 04:51:09;;;;;;;3.28;1.63;;;12.40;99.90;;;;;;4196694;28;20053;-75
2022/06/10 04:53:11;;;;;;;4.47;1.63;;;12.50;99.90;;;;;;4196484;28;20176;-75
2022/06/10 04:55:13;;;;;;;3.42;1.70;;;12.60;99.90;;;;;;4197097;28;20057;-75
2022/06/10 04:57:15;;;;;;;2.17;1.33;;;12.70;99.90;;;;;;4196886;28;20057;-75
2022/06/10 04:59:16;;;;;;;2.08;1.35;;;12.80;99.90;;;;;;4196629;28;20100;-75
2022/06/10 05:01:18;;;;;;;4.78;1.40;;;12.90;99.90;;;;;;4195600;28;20155;-75
2022/06/10 05:03:26;;;;;;;3.88;1.75;;;13.00;99.90;;;;;;4197131;28;20065;-75
2022/06/10 05:05:29;;;;;;;6.43;2.22;;;13.00;99.90;;;;;;4195501;28;20053;-74
2022/06/10 05:07:30;;;;;;;2.92;1.23;;;13.10;99.90;;;;;;4195518;28;20064;-75
2022/06/10 05:09:32;;;;;;;4.22;2.03;;;13.10;99.90;;;;;;4195384;28;20057;-75
2022/06/10 05:11:34;;;;;;;6.00;1.73;;;13.20;99.90;;;;;;4194121;28;20175;-75
2022/06/10 05:13:36;;;;;;;3.53;1.60;;;13.20;99.90;;;;;;4197727;28;20164;-75
2022/06/10 05:15:38;;;;;;;5.13;1.60;;;13.30;99.90;;;;;;4194875;28;20045;-74
2022/06/10 05:17:40;;;;;;;2.88;1.80;;;13.40;99.90;;;;;;4196808;28;20894;-76
2022/06/10 05:19:42;;;;;;;1.73;1.63;;;13.50;99.90;;;;;;4196920;28;20875;-76
2022/06/10 05:21:44;;;;;;;11.27;5.95;;;13.50;99.90;;;;;;4190783;28;20155;-76
2022/06/10 05:23:47;;;;;;;9.15;4.25;;;13.60;99.90;;;;;;4194517;28;20064;-76
2022/06/10 05:25:49;;;;;;;9.07;3.38;;;13.60;99.90;;;;;;4196105;28;20045;-76
2022/06/10 05:27:50;;;;;;;4.72;2.60;;;13.70;99.90;;;;;;4195939;28;20057;-76
2022/06/10 05:29:52;;;;;;;2.78;1.15;;;13.80;99.90;;;;;;4196459;28;20155;-76
2022/06/10 05:31:54;;;;;;;4.72;1.42;;;13.90;99.90;;;;;;4195181;28;20087;-76
2022/06/10 05:36:17;;;;;;;3.00;1.60;;;14.10;99.90;;;;;;4195942;28;20143;-76
2022/06/10 05:38:20;;;;;;;3.47;1.55;;;14.20;99.40;;;;;;4199204;28;20061;-76
2022/06/10 05:40:24;;;;;;;5.40;1.50;;;14.20;98.50;;;;;;4196322;28;20090;-76
2022/06/10 05:42:26;;;;;;;6.38;1.35;;;14.40;98.30;;;;;;4195408;28;21250;-76
2022/06/10 05:44:28;;;;;;;2.58;1.50;;;14.50;97.90;;;;;;4195513;28;20057;-76
2022/06/10 05:46:30;;;;;;;4.25;1.65;;;14.50;97.70;;;;;;4194491;28;20149;-76
2022/06/10 05:48:31;;;;;;;4.93;1.63;;;14.60;97.90;;;;;;4195836;28;20179;-75
2022/06/10 05:50:40;;;;;;;5.65;2.17;;;14.60;98.10;;;;;;4194500;28;20884;-76
2022/06/10 05:52:42;;;;;;;3.08;1.67;;;14.70;97.60;;;;;;4195994;28;20130;-75
2022/06/10 05:54:46;;;;;;;3.58;1.20;;;14.80;97.60;;;;;;4197809;28;20218;-75
2022/06/10 05:56:48;;;;;;;3.28;1.33;;;14.90;97.40;;;;;;4198245;28;20920;-75
2022/06/10 05:58:49;;;;;;;5.95;1.40;;;14.90;97.10;;;;;;4198655;28;20088;-75
2022/06/10 06:00:51;;;;;;;5.10;1.60;;;15.00;97.30;;;;;;4199138;28;20059;-75
2022/06/10 06:02:53;;;;;;;2.25;1.13;;;15.10;96.90;;;;;;4195754;28;20256;-75
2022/06/10 06:04:56;;;;;;;2.35;1.20;;;15.20;96.00;;;;;;4196682;28;20061;-75
2022/06/10 06:06:57;;;;;;;3.95;1.40;;;15.30;95.30;;;;;;4198947;28;20119;-75
2022/06/10 06:08:59;;;;;;;3.47;1.50;;;15.40;95.40;;;;;;4197568;28;20172;-75
2022/06/10 06:11:01;;;;;;;3.45;1.50;;;15.50;95.10;;;;;;4199003;28;20063;-75
2022/06/10 06:13:03;;;;;;;9.43;2.15;;;15.60;95.20;;;;;;4198906;28;20057;-76
2022/06/10 06:15:06;;;;;;;4.35;1.45;;;15.70;94.80;;;;;;4199165;28;20061;-75
2022/06/10 06:17:10;;;;;;;4.57;1.60;;;15.80;93.70;;;;;;4197173;28;20064;-76
2022/06/10 06:19:12;;;;;;;1.85;1.30;;;16.00;93.50;;;;;;4196736;28;20056;-76
2022/06/10 06:21:14;;;;;;;3.03;1.02;;;16.00;92.80;;;;;;4196826;28;20104;-76
2022/06/10 06:23:15;;;;;;;4.47;1.60;;;16.10;92.40;;;;;;4198889;28;20056;-76
2022/06/10 06:25:18;;;;;;;3.63;1.10;;;16.20;92.60;;;;;;4199112;28;20057;-76
2022/06/10 06:27:20;;;;;;;3.42;1.40;;;16.40;91.90;;;;;;4196615;28;20057;-76
2022/06/10 06:29:23;;;;;;;4.13;1.45;;;16.40;90.70;;;;;;4196729;28;20061;-75
2022/06/10 06:31:25;;;;;;;1.88;1.17;;;16.30;90.50;;;;;;4198271;28;20061;-76
2022/06/10 06:33:27;;;;;;;2.42;1.25;;;16.30;90.20;;;;;;4198873;28;20061;-76
2022/06/10 06:35:30;;;;;;;3.15;0.82;;;16.40;89.90;;;;;;4198906;28;20049;-76
2022/06/10 06:37:32;;;;;;;3.60;1.17;;;16.50;90.20;;;;;;4198270;28;20835;-76
2022/06/10 06:39:33;;;;;;;4.78;2.08;;;16.50;90.30;;;;;;4193915;28;20071;-76
2022/06/10 06:41:35;;;;;;;3.63;1.08;;;16.60;90.30;;;;;;4196532;28;20100;-76
2022/06/10 06:43:37;;;;;;;7.40;1.13;;;16.70;90.10;;;;;;4198036;28;20097;-76
2022/06/10 06:45:46;;;;;;;5.55;1.15;;;16.80;90.20;;;;;;4196865;28;20145;-77
2022/06/10 06:47:48;;;;;;;5.82;1.48;;;16.90;90.00;;;;;;4198802;28;20061;-76
2022/06/10 06:49:50;;;;;;;2.67;1.67;;;17.00;89.20;;;;;;4195548;28;20061;-76
2022/06/10 06:51:52;;;;;;;2.85;1.25;;;17.10;86.70;;;;;;4196231;28;20068;-75
2022/06/10 06:53:54;;;;;;;1.38;0.93;;;17.10;86.60;;;;;;4198230;28;20895;-76
2022/06/10 06:55:56;;;;;;;6.03;1.85;;;17.20;84.80;;;;;;4192945;28;20392;-75
2022/06/10 06:57:58;;;;;;;4.28;1.17;;;17.20;84.10;;;;;;4196215;28;20642;-75
2022/06/10 07:00:06;;;;;;;3.90;0.93;;;17.30;84.90;;;;;;4195452;28;20096;-75
2022/06/10 07:02:08;;;;;;;4.13;1.10;;;17.40;83.30;;;;;;4197951;28;20061;-75
2022/06/10 07:04:10;;;;;;;2.10;1.10;;;17.50;84.80;;;;;;4197636;28;20187;-78
2022/06/10 07:06:18;;;;;;;4.82;1.60;;;17.50;82.90;;;;;;4196931;28;20052;-76
2022/06/10 07:08:20;;;;;;;2.80;1.50;;;17.60;83.10;;;;;;4198036;28;20057;-77
2022/06/10 07:10:22;;;;;;;5.78;1.75;;;17.70;84.90;;;;;;4196223;28;20059;-78
2022/06/10 07:12:24;;;;;;;4.15;1.65;;;17.70;84.60;;;;;;4195430;28;20502;-75
2022/06/10 07:14:26;;;;;;;2.70;1.08;;;17.70;84.40;;;;;;4197286;28;20096;-74
2022/06/10 07:16:27;;;;;;;4.03;1.35;;;17.80;83.20;;;;;;4195383;28;20096;-75
2022/06/10 07:18:31;;;;;;;4.97;1.90;;;17.80;82.30;;;;;;4196722;28;20827;-74
2022/06/10 07:20:34;;;;;;;4.53;1.63;;;17.90;82.20;;;;;;4197808;28;20079;-74
2022/06/10 07:22:36;;;;;;;4.18;1.10;;;17.90;82.10;;;;;;4196933;28;20160;-74
2022/06/10 07:24:38;;;;;;;4.50;1.17;;;18.00;82.50;;;;;;4196380;28;20053;-74
2022/06/10 07:26:39;;;;;;;1.52;0.98;;;18.00;82.30;;;;;;4195174;28;20057;-75
2022/06/10 07:28:41;;;;;;;2.42;1.00;;;18.00;82.90;;;;;;4197374;28;20053;-76
2022/06/10 07:30:44;;;;;;;3.63;1.25;;;18.00;83.60;;;;;;4198612;28;20868;-76
2022/06/10 07:32:45;;;;;;;6.40;1.40;;;18.10;83.90;;;;;;4195932;28;20094;-74
2022/06/10 07:34:47;;;;;;;1.60;1.10;;;18.20;82.20;;;;;;4198032;28;20103;-75
2022/06/10 07:36:49;;;;;;;1.75;0.95;;;18.20;82.60;;;;;;4198236;28;20096;-74
2022/06/10 07:38:51;;;;;;;5.22;1.42;;;18.30;81.50;;;;;;4197967;28;20049;-74
2022/06/10 07:43:15;;;;;;;5.05;1.45;;;18.30;82.50;;;;;;4196920;28;20056;-75
2022/06/10 07:45:17;;;;;;;2.72;1.45;;;18.30;81.60;;;;;;4197644;28;20870;-76
2022/06/10 07:47:19;;;;;;;2.30;0.98;;;18.30;81.40;;;;;;4198181;28;20160;-75
2022/06/10 07:49:20;;;;;;;3.97;1.25;;;18.20;81.50;;;;;;4197533;28;20061;-75
2022/06/10 07:51:23;;;;;;;1.15;1.02;;;18.30;82.60;;;;;;4196272;28;20100;-74
2022/06/10 07:53:24;;;;;;;3.25;1.45;;;18.30;80.20;;;;;;4197919;28;20061;-76
2022/06/10 07:55:26;;;;;;;3.30;1.25;;;18.30;82.20;;;;;;4197999;28;20057;-74
2022/06/10 07:57:27;;;;;;;4.25;1.17;;;18.20;81.40;;;;;;4197569;28;20174;-75
2022/06/10 07:59:30;;;;;;;4.75;1.15;;;18.20;81.20;;;;;;4198036;28;20049;-74
2022/06/10 08:01:32;;;;;;;4.07;1.25;;;18.20;82.70;;;;;;4197707;28;20064;-76
2022/06/10 08:03:34;;;;;;;2.70;1.40;;;18.30;82.50;;;;;;4197526;28;20068;-75
2022/06/10 08:05:36;;;;;;;2.70;1.55;;;18.30;81.20;;;;;;4194336;28;20087;-75
2022/06/10 08:07:38;;;;;;;5.85;1.52;;;18.50;80.50;;;;;;4194601;28;20075;-75
2022/06/10 08:09:40;;;;;;;3.28;1.17;;;18.50;81.60;;;;;;4197144;28;20064;-74
2022/06/10 08:11:42;;;;;;;5.03;1.67;;;18.50;81.80;;;;;;4197545;28;20053;-75
2022/06/10 08:13:44;;;;;;;2.78;1.10;;;18.50;81.70;;;;;;4197157;28;20060;-74
2022/06/10 08:15:46;;;;;;;4.97;1.42;;;18.60;79.80;;;;;;4195722;28;20160;-74
2022/06/10 08:17:50;;;;;;;2.65;1.33;;;18.70;80.20;;;;;;4196593;28;20065;-74
2022/06/10 08:19:51;;;;;;;3.95;1.33;;;18.70;79.60;;;;;;4197370;28;20080;-74
2022/06/10 08:24:14;;;;;;;3.00;1.63;;;18.90;78.00;;;;;;4192979;28;20860;-75
2022/06/10 08:26:16;;;;;;;8.32;1.85;;;18.90;78.20;;;;;;4193226;28;20109;-74
2022/06/10 08:28:18;;;;;;;6.05;1.42;;;18.90;74.70;;;;;;4196429;28;20957;-74
2022/06/10 08:30:21;;;;;;;2.55;1.25;;;18.80;76.00;;;;;;4197065;28;20803;-74
2022/06/10 08:32:23;;;;;;;4.88;1.42;;;18.90;77.50;;;;;;4195707;28;20092;-74
2022/06/10 08:34:25;;;;;;;3.55;1.20;;;18.80;74.90;;;;;;4194106;28;20100;-72
2022/06/10 08:36:27;;;;;;;3.63;1.00;;;18.90;77.60;;;;;;4196836;28;20180;-70
2022/06/10 08:38:29;;;;;;;2.17;1.05;;;19.00;76.30;;;;;;4195430;28;20053;-71
2022/06/10 08:40:39;;;;;;;5.30;1.38;;;19.00;75.90;;;;;;4195954;28;20053;-70
2022/06/10 08:42:42;;;;;;;6.43;1.10;;;19.00;74.90;;;;;;4193572;28;20063;-70
2022/06/10 08:44:56;;;;;;;6.22;1.52;;;19.00;75.30;;;;;;4193885;28;20148;-70
2022/06/10 08:47:28;;;;;;;3.60;1.27;;;19.00;74.00;;;;;;4196218;28;20057;-70
2022/06/10 08:50:04;;;;;;;4.82;1.35;;;18.80;74.70;;;;;;4188376;28;20164;-71
2022/06/10 08:52:39;;;;;;;5.95;1.30;;;18.90;76.00;;;;;;4196352;28;20057;-71
2022/06/10 08:54:56;;;;;;;5.25;1.10;;;19.10;73.10;;;;;;4196347;28;20068;-71
2022/06/10 08:57:06;;;;;;;4.20;1.33;;;19.40;71.30;;;;;;4196148;28;20065;-70
2022/06/10 08:59:21;;;;;;;4.00;1.25;;;19.40;71.10;;;;;;4196763;28;20100;-71
2022/06/10 09:01:24;;;;;;;2.30;1.00;;;19.50;70.30;;;;;;4196350;28;20886;-71
2022/06/10 09:03:49;;;;;;;3.47;1.13;;;19.50;69.30;;;;;;4196698;28;20065;-71
2022/06/10 09:06:01;;;;;;;6.05;1.45;;;19.60;70.80;;;;;;4194867;28;20059;-71
2022/06/10 09:08:09;;;;;;;4.47;0.95;;;19.60;68.40;;;;;;4196241;28;20151;-71
2022/06/10 09:10:24;;;;;;;5.97;1.33;;;19.60;68.50;;;;;;4196532;28;20065;-71
2022/06/10 09:12:26;;;;;;;2.40;0.90;;;19.60;69.40;;;;;;4190686;28;20688;-70
2022/06/10 09:14:28;;;;;;;6.88;1.48;;;19.70;67.70;;;;;;4195363;28;20798;-70
2022/06/10 09:16:33;;;;;;;8.95;1.35;;;19.70;68.90;;;;;;4196261;28;20056;-71
2022/06/10 09:18:54;;;;;;;1.48;0.90;;;19.70;68.70;;;;;;4194808;28;20057;-70
2022/06/10 09:21:05;;;;;;;2.88;0.73;;;19.70;67.40;;;;;;4195550;28;20152;-70
2022/06/10 09:23:18;;;;;;;2.20;1.10;;;19.90;69.20;;;;;;4196878;28;20057;-70
2022/06/10 09:25:43;;;;;;;6.28;1.80;;;20.00;64.90;;;;;;4196532;28;20061;-70
2022/06/10 09:27:51;;;;;;;1.75;0.57;;;20.20;65.40;;;;;;4194081;28;20095;-71
2022/06/10 09:29:55;;;;;;;8.50;1.10;;;20.40;63.80;;;;;;4196558;28;20793;-71
2022/06/10 09:32:07;;;;;;;3.95;1.25;;;20.60;63.10;;;;;;4194238;28;20057;-70
2022/06/10 09:34:25;;;;;;;3.60;0.85;;;20.70;60.90;;;;;;4194766;28;20104;-70
2022/06/10 09:36:50;;;;;;;2.70;0.85;;;20.70;64.30;;;;;;4196137;28;20888;-70
2022/06/10 09:39:03;;;;;;;2.15;1.02;;;20.70;62.40;;;;;;4194738;28;20067;-70
2022/06/10 09:41:12;;;;;;;3.42;0.68;;;20.80;61.60;;;;;;4196263;28;20049;-70
2022/06/10 09:43:33;;;;;;;2.55;1.10;;;20.60;62.50;;;;;;4195225;28;20063;-70
2022/06/10 09:45:41;;;;;;;2.58;1.20;;;20.50;64.30;;;;;;4195952;28;20053;-70
2022/06/10 09:47:58;;;;;;;3.30;1.10;;;20.30;63.70;;;;;;4196506;28;20057;-70
2022/06/10 09:50:08;;;;;;;3.67;0.98;;;20.30;63.80;;;;;;4194940;28;20136;-69
2022/06/10 09:52:20;;;;;;;2.28;1.05;;;20.20;63.10;;;;;;4195463;28;20655;-70
2022/06/10 09:54:48;;;;;;;2.55;1.00;;;20.20;65.30;;;;;;4196371;28;20067;-70
2022/06/10 09:57:22;;;;;;;2.15;0.88;;;20.20;64.90;;;;;;4194984;28;20679;-70
2022/06/10 09:59:30;;;;;;;4.93;1.02;;;20.40;63.60;;;;;;4195795;28;20058;-70
2022/06/10 10:01:38;;;;;;;5.65;0.88;;;20.40;64.00;;;;;;4194124;28;20057;-70
2022/06/10 10:04:23;;;;;;;2.70;0.98;;;20.50;64.30;;;;;;4195520;28;20146;-69
2022/06/10 10:06:28;;;;;;;7.07;1.52;;;20.50;66.10;;;;;;4193851;28;20061;-69
2022/06/10 10:08:50;;;;;;;7.18;1.35;;;20.30;63.30;;;;;;4196234;28;20164;-70
2022/06/10 10:11:28;;;;;;;2.55;1.25;;;20.00;64.40;;;;;;4186762;28;20064;-70
2022/06/10 10:13:48;;;;;;;4.22;0.90;;;19.90;67.20;;;;;;4185897;28;20057;-70
2022/06/10 10:16:14;;;;;;;3.65;1.30;;;19.80;68.60;;;;;;4194369;28;20062;-74
2022/06/10 10:18:38;;;;;;;4.43;1.17;;;19.90;70.10;;;;;;4194998;28;20061;-71
2022/06/10 10:21:02;;;;;;;4.35;1.85;;;19.80;69.10;;;;;;4195909;28;20083;-70
2022/06/10 10:23:13;;;;;;;3.70;1.40;;;19.70;69.90;;;;;;4195453;28;20936;-75
2022/06/10 10:25:16;;;;;;;;;;;19.60;71.00;;;;;;4196212;28;20056;-70
2022/06/10 10:27:22;;;;;;;8.93;5.15;;;19.60;69.00;;;;;;4195772;28;19928;-70
2022/06/10 10:29:27;;;;;;;5.45;2.17;;;19.50;68.70;;;;;;4195980;28;20152;-71
2022/06/10 10:31:49;;;;;;;4.00;1.88;;;19.50;70.00;;;;;;4196037;28;20655;-70
2022/06/10 10:33:51;;;;;;;2.15;1.10;;;19.50;68.90;;;;;;4194861;28;20075;-71
2022/06/10 10:35:56;;;;;;;5.07;1.17;;;19.60;69.30;;;;;;4190729;28;20081;-70
2022/06/10 10:38:05;;;;;;;2.35;0.90;;;19.50;67.50;;;;;;4195424;28;20783;-71
2022/06/10 10:40:15;;;;;;;3.42;0.98;;;19.40;67.80;;;;;;4196242;28;20167;-71
2022/06/10 10:42:23;;;;;;;6.13;3.75;;;19.50;68.30;;;;;;4198794;28;20049;-70
2022/06/10 10:44:41;;;;;;;3.75;1.80;;;19.60;69.60;;;;;;4196162;28;20152;-70
2022/06/10 10:47:10;;;;;;;1.98;1.05;;;19.80;69.60;;;;;;4197102;28;20871;-71
2022/06/10 10:49:26;;;;;;;3.83;1.45;;;19.90;68.70;;;;;;4196758;28;20095;-73
2022/06/10 10:51:38;;;;;;;13.93;6.00;;;20.10;69.50;;;;;;4195383;28;20107;-70
2022/06/10 10:54:03;;;;;;;2.90;2.42;;;20.30;69.70;;;;;;4196689;28;20045;-71
2022/06/10 10:56:06;;;;;;;6.85;2.88;;;20.40;66.70;;;;;;4197174;28;20107;-71
2022/06/10 10:58:20;;;;;;;3.45;0.60;;;20.50;68.50;;;;;;4196186;28;20068;-71
2022/06/10 11:00:39;;;;;;;2.50;1.05;;;20.50;65.10;;;;;;4193712;28;20151;-71
2022/06/10 11:02:55;;;;;;;1.85;0.98;;;20.40;64.30;;;;;;4188691;28;20057;-71
2022/06/10 11:05:21;;;;;;;3.55;1.20;;;20.30;66.30;;;;;;4195583;28;20880;-71
2022/06/10 11:07:23;;;;;;;2.10;0.80;;;20.30;66.00;;;;;;4196474;28;20057;-71
2022/06/10 11:09:29;;;;;;;2.83;1.02;;;20.20;66.20;;;;;;4197015;28;20057;-71
2022/06/10 11:11:34;;;;;;;4.00;1.15;;;20.20;65.00;;;;;;4196811;28;20057;-72
2022/06/10 11:13:54;;;;;;;3.05;0.70;;;20.10;65.80;;;;;;4196164;28;20252;-72
2022/06/10 11:16:28;;;;;;;4.63;1.13;;;20.00;67.00;;;;;;4196354;28;20795;-73
2022/06/10 11:18:30;;;;;;;5.90;1.65;;;20.00;68.10;;;;;;4196540;28;20057;-72
2022/06/10 11:20:36;;;;;;;2.40;0.93;;;20.00;67.40;;;;;;4196233;28;20063;-71
2022/06/10 11:22:44;;;;;;;2.83;0.90;;;20.00;67.40;;;;;;4196549;28;20138;-71